Herbert C Jackson — WL3972 — position and weather

sailwx.info

Track history (hours):
 
Tides and Currents Weather Stations Pressure Air Temp Water Temp Dewpoint Dewpoint Depression Visibility Wind Speed Wind Dir Waves Ship Positions

Herbert C Jackson

Owner: THE INTERLAKE STEAMSHIP COMPANY, Middleburg Heights, OH. More information available from US FCC via Universal Licensing System and Coast Guard Vessel Documentation Center.

Last reported at 2015-May-26 04:00 UTC. Time now 2015-May-26 05:41 UTC.
Position N 42°42' W 082°30'.

Length 239 m; draft 8.5 m.

Type: Cargo ship. MMSI: 366904930.

Wind from 180 at 6 knots

Barometer 1016.4 mb
Air temperature 20.7 ° C
Water temperature 9.8 ° C

Date/timePositionNaut miles runAvg speedWind from/ knotsBaromVisibWave heightAir tempDewpointWater temp
2015-May-26 04:00N 42°42' W 082°30'7 7.4 180 / 61016.4 20.7 9.8
2015-May-26 03:00N 42°36' W 082°36'7 7.5 200 / 101015.7 21.1 10.3
2015-May-26 02:00N 42°30' W 082°42'2110.7 210 / 131014.8 17.1 11.3
2015-May-26 00:00N 42°18' W 083°06'1212.0 220 / 201014.2 26.3 13.2
2015-May-25 23:00N 42°06' W 083°06'1212.0 180 / 151014.2 23.0 13.5
2015-May-25 22:00N 41°54' W 083°06'1110.8 200 / 221014.4 21.0 14.2
2015-May-25 21:00N 41°48' W 083°18'7 7.5 220 / 261014.7 24.3 15.6
2015-May-25 20:00N 41°42' W 083°24'0 0.0 200 / 261015.1 25.8 17.4
2015-May-25 19:00N 41°42' W 083°24'0 0.0 210 / 211015.1 25.9 17.2
2015-May-25 18:00N 41°42' W 083°24'0 0.0 220 / 221015.4 25.7 17.0
2015-May-25 17:00N 41°42' W 083°24'0 0.0 200 / 231015.4 26.1 16.8
2015-May-25 16:00N 41°42' W 083°24'0 0.0 200 / 171015.7 26.2 16.6
2015-May-25 15:00N 41°42' W 083°24'0 0.0 200 / 231015.7 24.9 18.2
2015-May-25 14:00N 41°42' W 083°24'0 0.0 220 / 231016.1 23.6 16.0
2015-May-25 13:00N 41°42' W 083°24'1110.8 200 / 201016.8 22.4 15.3
2015-May-25 12:00N 41°48' W 083°12'7 7.5 180 / 181016.8 19.9 14.0
2015-May-25 11:00N 41°54' W 083°06'0 0.0 180 / 181016.8 18.7 13.3
2015-May-25 10:00N 41°54' W 083°06'0 0.0 160 / 131016.8 18.2 12.8
2015-May-25 09:00N 41°54' W 083°06'0 0.0 160 / 131016.8 18.4 12.8
2015-May-25 08:00N 41°54' W 083°06'0 0.0 160 / 131017.1 18.3 13.0
2015-May-25 07:00N 41°54' W 083°06'0 0.0 160 / 161017.4 18.4 13.6
2015-May-25 06:00N 41°54' W 083°06'0 0.0 160 / 171017.8 19.0 13.6
2015-May-25 05:00N 41°54' W 083°06'0 0.0 160 / 181018.1 19.0 13.6
2015-May-25 04:00N 41°54' W 083°06'0 0.0 140 / 161018.5 19.5 13.4
2015-May-25 02:00N 41°54' W 083°06'0 0.0 100 / 131019.1 17.6 13.4
2015-May-25 01:00N 41°54' W 083°06'1212.0 080 / 191018.8 16.6 13.2
2015-May-25 00:00N 42°06' W 083°06'6 6.0 090 / 121019.5 22.0 12.2
2015-May-24 23:00N 42°12' W 083°06'7 7.5 110 / 71020.3 23.8 12.1
2015-May-24 22:00N 42°18' W 083°00'1110.7 100 / 21021.3 24.3 12.0
2015-May-24 21:00N 42°24' W 082°48'1110.7 190 / 61021.6 23.3 10.9
2015-May-24 20:00N 42°30' W 082°36'1312.8 200 / 51021.9 23.4 9.5
2015-May-24 19:00N 42°42' W 082°30'6 6.0 190 / 111022.5 24.0 9.5
2015-May-24 18:00N 42°48' W 082°30'1312.8 190 / 121022.8 24.4 9.2
2015-May-24 17:00N 43°00' W 082°24'1212.0 240 / 91023.5 25.5 9.0
2015-May-24 16:00N 43°12' W 082°24'1212.0 170 / 71023.2 22.2 7.3
2015-May-24 15:00N 43°24' W 082°24'1312.8 150 / 131022.8 15.6 6.6
2015-May-24 14:00N 43°36' W 082°30'1212.0 120 / 161023.2 8.5 6.1
2015-May-24 13:00N 43°48' W 082°30'9513.5 150 / 111023.2 10.1 3.7
2015-May-24 06:00N 45°18' W 083°12'7 7.3 030 / 81022.1 10.6 2.7
2015-May-24 05:00N 45°24' W 083°18'1514.7 350 / 121022.1 7.5 2.8
2015-May-24 04:00N 45°36' W 083°30'1516.3 320 / 51021.8 8.6 2.6
2015-May-24 03:05N 45°48' W 083°43'713.4
2015-May-24 02:33N 45°53' W 083°50'813.4
2015-May-24 02:00N 46°00' W 083°54'15 9.8 280 / 41021.5 16.1 5.5
2015-May-24 00:24N 46°12' W 084°08'3 6.7
2015-May-24 00:00N 46°12' W 084°12'810.2 240 / 181020.4 18.1 5.8
2015-May-23 23:14N 46°20' W 084°13'2 7.0
2015-May-23 23:00N 46°18' W 084°12'1312.7 240 / 191020.1 20.4 4.9
2015-May-23 22:00N 46°30' W 084°18'0 0.0 200 / 91020.4 22.0 4.3
2015-May-23 21:00N 46°30' W 084°18'4 4.1 250 / 101021.5 22.0 4.5
2015-May-23 20:00N 46°30' W 084°24'0 0.0 230 / 221021.0 21.2 3.8
2015-May-23 19:00N 46°30' W 084°24'510.5 230 / 181021.7 18.7 3.5
2015-May-23 18:29N 46°27' W 084°31'1510.0
2015-May-23 17:00N 46°36' W 084°48'1514.6 210 / 151021.0 11.7 1.7
2015-May-23 16:00N 46°48' W 085°00'1212.3 240 / 151021.0 13.7 2.0
2015-May-23 15:00N 46°48' W 085°18'1212.3 200 / 181021.3 11.0 2.5
2015-May-23 14:00N 46°48' W 085°36'1212.3 200 / 171022.0 9.9 1.9
2015-May-23 13:00N 46°48' W 085°54'1212.3 210 / 121022.4 9.2 2.7
2015-May-23 12:00N 46°48' W 086°12'49 2.6 200 / 161022.010.8 0.5 6.8 2.2
2015-May-22 17:00N 46°48' W 085°00'1514.6 300 / 121024.0 1.0 2.7
2015-May-22 16:00N 46°36' W 084°48'1010.2 310 / 141023.4 1.2 1.9
2015-May-22 15:00N 46°30' W 084°36'8 8.3 300 / 191022.4 1.8 3.1
2015-May-22 14:00N 46°30' W 084°24'4 4.1 270 / 91022.4 4.0 4.4
2015-May-22 13:00N 46°30' W 084°18'7 7.3 310 / 81021.8 3.1 4.3
2015-May-22 12:00N 46°24' W 084°12'4 9.0 330 / 111021.1 1.9 4.4
2015-May-22 11:31N 46°20' W 084°11'4 7.1
2015-May-22 11:00N 46°18' W 084°06'4 8.9 300 / 91020.1 2.3 4.4
2015-May-22 10:33N 46°14' W 084°07'2 3.9
2015-May-22 10:00N 46°12' W 084°06'716.8 340 / 91018.8 2.5 5.8
2015-May-22 09:33N 46°06' W 084°01'713.1
2015-May-22 09:00N 46°00' W 083°54'3 6.2 350 / 141017.4 4.4 6.9
2015-May-22 08:33N 45°57' W 083°53'5 8.9
2015-May-22 08:00N 45°54' W 083°48'4213.9 340 / 71016.7 5.4 2.8
2015-May-22 05:00N 45°18' W 083°18'1514.7 290 / 261013.0 6.4 3.0
2015-May-22 04:00N 45°06' W 083°06'1312.7 280 / 211013.3 7.4 4.2
2015-May-22 03:00N 44°54' W 083°00'1312.7 300 / 241012.7 7.7 3.4
2015-May-22 02:00N 44°42' W 082°54'5112.7 320 / 251011.3 7.1 3.3
2015-May-21 22:00N 43°54' W 082°30'1818.0 260 / 231010.6 16.7 7.3
2015-May-21 21:00N 43°36' W 082°30'1212.0 270 / 221011.0 15.9 6.3
2015-May-21 20:00N 43°24' W 082°30'1312.8 190 / 61012.0 14.2 7.0
2015-May-21 19:00N 43°12' W 082°24'1212.0 150 / 71012.7 13.3 8.7
2015-May-21 18:00N 43°00' W 082°24'1312.8 250 / 121013.3 16.1 8.7
2015-May-21 17:00N 42°48' W 082°30'6 6.0 300 / 91014.3 14.8 8.7
2015-May-21 16:00N 42°42' W 082°30'2211.2 260 / 121015.0 13.7 8.7
2015-May-21 14:00N 42°24' W 082°48'1110.7 280 / 141016.2 12.3 10.8
2015-May-21 13:00N 42°18' W 083°00'4 4.4 290 / 71016.5 11.5 11.2
2015-May-21 12:00N 42°18' W 083°06'0 0.0 290 / 41016.5 10.7 12.4
2015-May-21 11:00N 42°18' W 083°06'0 0.0 250 / 21016.5 10.1 12.8
2015-May-21 09:00N 42°18' W 083°06'4 4.4 280 / 61017.2 10.0 19.5
2015-May-21 08:00N 42°18' W 083°12'0 0.0 250 / 61017.2 10.3 19.0
2015-May-21 07:00N 42°18' W 083°12'0 0.0 230 / 51017.9 10.5 18.6
2015-May-21 06:00N 42°18' W 083°12'0 0.0 220 / 61018.2 10.4 17.7
2015-May-21 05:00N 42°18' W 083°12'0 0.0 260 / 71018.2 10.9 16.6
2015-May-21 04:00N 42°18' W 083°12'0 0.0 230 / 51017.9 12.4 16.1
2015-May-21 03:00N 42°18' W 083°12'4 4.4 220 / 51018.2 12.6 17.4
2015-May-21 02:00N 42°18' W 083°06'0 0.0 240 / 31018.2 12.0 14.5
2015-May-21 01:00N 42°18' W 083°06'1110.7 180 / 81017.9 12.1 11.2
2015-May-21 00:00N 42°24' W 082°54'1110.7 170 / 71018.9 12.4 10.6
2015-May-20 23:00N 42°30' W 082°42'1110.7 180 / 101018.9 12.0 8.5
2015-May-20 22:00N 42°36' W 082°30'1212.0 190 / 51020.1 13.4 8.4
2015-May-20 21:00N 42°48' W 082°30'6 6.0 100 / 51020.4 13.9 8.8
2015-May-20 20:00N 42°54' W 082°30'2412.2 050 / 81021.1 11.2 8.8
2015-May-20 18:00N 43°18' W 082°24'1212.0 090 / 111021.8 4.6 6.0
2015-May-20 17:00N 43°30' W 082°24'1312.8 080 / 101022.110.8 1.0 4.1 4.7
2015-May-20 16:00N 43°42' W 082°30'1818.0 060 / 71022.8 4.2 4.3
2015-May-20 15:00N 44°00' W 082°30'2512.7 300 / 61022.8 3.6 3.2
2015-May-20 13:00N 44°24' W 082°42'1312.7 310 / 101022.5 2.8 3.1
2015-May-20 12:00N 44°36' W 082°48'3812.7 310 / 131022.5 2.5 3.1
2015-May-20 09:00N 45°12' W 083°06'917.4 310 / 141021.1 2.1 2.6
2015-May-20 08:28N 45°19' W 083°14'611.7
2015-May-20 08:00N 45°24' W 083°18'715.2 310 / 181021.1 2.0 2.6
2015-May-20 07:33N 45°29' W 083°24'814.3
2015-May-20 07:00N 45°36' W 083°30'1212.8 310 / 171021.5 2.0 2.5
2015-May-20 06:03N 45°45' W 083°41'713.4
2015-May-20 05:33N 45°51' W 083°46'611.1
2015-May-20 05:00N 45°54' W 083°54'816.1 310 / 151022.5 1.6 4.7
2015-May-20 04:28N 46°02' W 083°56'12 8.1
2015-May-20 03:00N 46°12' W 084°06'7 7.3 320 / 131022.5 2.0 5.8
2015-May-20 02:00N 46°18' W 084°12'13 6.3 300 / 101021.8 1.7 4.4
2015-May-20 00:00N 46°30' W 084°18'4 4.1 290 / 91020.1 2.7 3.8
2015-May-19 23:00N 46°30' W 084°24'4 4.1 300 / 91019.3 2.9 4.0
2015-May-19 22:00N 46°30' W 084°30'8 8.3 320 / 201019.6 1.9 3.8
2015-May-19 21:00N 46°30' W 084°42'1312.7 320 / 261020.3 1.0 2.1
2015-May-19 20:00N 46°42' W 084°48'1413.7 320 / 211021.3 0.5 1.6
2015-May-19 19:00N 46°48' W 085°06'3712.3 320 / 221021.7 0.2 1.7
2015-May-19 16:00N 46°48' W 086°00'1212.3 330 / 271020.3 -0.1 2.4
2015-May-19 15:00N 46°48' W 086°18'1413.7 340 / 291020.3 -0.2 2.0
2015-May-19 14:00N 46°42' W 086°36'1413.7 330 / 241021.0 0.3 2.5
2015-May-19 13:00N 46°36' W 086°54'2110.3 330 / 261021.0 0.5 2.3
2015-May-19 11:00N 46°36' W 087°24'0 0.0 330 / 131021.0 0.4 5.4
2015-May-19 10:00N 46°36' W 087°24'0 0.0 320 / 151020.0 0.5 5.4
2015-May-19 09:00N 46°36' W 087°24'0 0.0 310 / 141020.0 0.6 5.4
2015-May-19 08:00N 46°36' W 087°24'0 0.0 310 / 121019.3 1.2 5.4
2015-May-19 06:00N 46°36' W 087°24'0 0.0 340 / 151018.6 1.4 5.2
2015-May-19 05:00N 46°36' W 087°24'0 0.0 310 / 121018.3 1.6 5.2
2015-May-19 04:00N 46°36' W 087°24'1212.4 330 / 281016.6 1.8 3.3
2015-May-19 03:00N 46°36' W 087°06'1212.4 290 / 191014.9 3.4 2.4
2015-May-19 02:00N 46°36' W 086°48'1817.5 210 / 101014.9 3.9 2.5
2015-May-19 01:00N 46°42' W 086°24'3712.5 230 / 81014.2 4.2 2.1
2015-May-18 22:00N 46°48' W 085°30'1616.4 260 / 171011.5 5.0 1.7
2015-May-18 21:00N 46°48' W 085°06'1413.7 260 / 161010.5 5.8 2.1
2015-May-18 20:00N 46°42' W 084°48'2010.2 290 / 261009.5 6.8 1.5
2015-May-18 18:00N 46°30' W 084°24'4 2.1 210 / 241008.5 19.9 3.0
2015-May-18 16:00N 46°30' W 084°18'15 7.3 200 / 211009.6 20.9 3.4
2015-May-18 14:00N 46°18' W 084°06'6 8.7 220 / 181010.3 20.1 4.3
2015-May-18 13:21N 46°12' W 084°07'1 2.6
2015-May-18 13:00N 46°12' W 084°06'0 0.0 210 / 71010.3 17.8 6.1
2015-May-18 12:00N 46°12' W 084°06'3 7.2 120 / 51010.3 15.7 6.1
2015-May-18 11:33N 46°09' W 084°03'3 5.7
2015-May-18 11:00N 46°12' W 084°06'3 7.2 120 / 61010.3 15.3 6.0
2015-May-18 10:33N 46°09' W 084°03'0 0.0
2015-May-18 09:32N 46°09' W 084°03'3 2.7
2015-May-18 08:30N 46°07' W 084°01'1 2.7
2015-May-18 08:00N 46°06' W 084°00'916.7 190 / 111009.6 14.2 7.1
2015-May-18 07:26N 45°58' W 083°54'4 8.8
2015-May-18 07:00N 45°54' W 083°54'1514.6 160 / 171009.9 12.0 3.1
2015-May-18 06:00N 45°42' W 083°42'1514.6 150 / 171010.6 13.9 2.4
2015-May-18 05:00N 45°30' W 083°30'1514.7 150 / 151011.3 11.4 2.4
2015-May-18 04:00N 45°18' W 083°18'2713.6 150 / 181011.6 11.4 2.7
2015-May-18 02:00N 44°54' W 083°00'5714.2 150 / 221013.7 9.8 3.1
2015-May-17 22:00N 44°00' W 082°36'1312.8 140 / 161015.7 10.3 7.6
2015-May-17 21:00N 43°48' W 082°30'3015.0 130 / 161016.4 11.7 6.8
2015-May-17 19:00N 43°18' W 082°30'1312.8 130 / 101018.1 14.5 7.1
2015-May-17 18:00N 43°06' W 082°24'1212.0 150 / 51018.4 19.5 8.3
2015-May-17 17:00N 42°54' W 082°24'7 7.4 210 / 121019.1 23.0 7.8
2015-May-17 16:00N 42°48' W 082°30'1212.0 160 / 111019.1 22.5 7.9
2015-May-17 15:00N 42°36' W 082°30'1110.7 180 / 61020.1 18.1 8.1
2015-May-17 14:00N 42°30' W 082°42'1110.7 120 / 91020.3 15.7 8.5
2015-May-17 13:00N 42°24' W 082°54'1110.7 100 / 51019.9 16.7 10.7
2015-May-17 12:00N 42°18' W 083°06'4 2.2 020 / 21019.9 17.8 12.1
2015-May-17 10:00N 42°18' W 083°12'0 0.0 150 / 51019.6 19.0 18.5
2015-May-17 09:00N 42°18' W 083°12'0 0.0 180 / 61018.9 19.3 18.4
2015-May-17 08:00N 42°18' W 083°12'0 0.0 190 / 51018.6 19.6 18.1
2015-May-17 07:00N 42°18' W 083°12'0 0.0 170 / 41018.6 19.7 18.4
2015-May-17 06:00N 42°18' W 083°12'0 0.0 110 / 31019.2 19.4 18.1
2015-May-17 05:00N 42°18' W 083°12'0 0.0 150 / 41019.2 19.3 16.8
2015-May-17 04:00N 42°18' W 083°12'0 0.0 140 / 71019.2 19.7 15.8
2015-May-17 03:00N 42°18' W 083°12'4 4.4 150 / 41019.2 20.1 17.0
2015-May-17 02:00N 42°18' W 083°06'0 0.0 140 / 41019.2 20.2 13.0
2015-May-17 01:00N 42°18' W 083°06'4 4.4 130 / 51018.6 20.9 12.0
2015-May-17 00:00N 42°18' W 083°00'0 0.0 160 / 71018.6 21.8 11.5
2015-May-16 23:00N 42°18' W 083°00'0 0.0 170 / 61018.6 22.4 11.4
2015-May-16 22:00N 42°18' W 083°00'0 0.0 040 / 91018.6 17.2 11.4
2015-May-16 21:00N 42°18' W 083°00'0 0.0 050 / 101017.9 18.4 11.4
2015-May-16 20:00N 42°18' W 083°00'0 0.0 210 / 71018.2 22.8 11.4
2015-May-16 19:00N 42°18' W 083°00'0 0.0 040 / 51018.9 20.0 11.2
2015-May-16 18:00N 42°18' W 083°00'7 3.7 090 / 101018.6 18.2 11.2
2015-May-16 16:00N 42°24' W 082°54'   090 / 61019.6 15.4 10.5
Track history (hours):
 
Tides and Currents Weather Stations Pressure Air Temp Water Temp Dewpoint Dewpoint Depression Visibility Wind Speed Wind Dir Waves Ship Positions

Herbert C Jackson

Owner: THE INTERLAKE STEAMSHIP COMPANY, Middleburg Heights, OH. More information available from US FCC via Universal Licensing System and Coast Guard Vessel Documentation Center.

Last reported at 2015-May-26 04:00 UTC. Time now 2015-May-26 05:41 UTC.
Position N 42°42' W 082°30'.

Length 239 m; draft 8.5 m.

Type: Cargo ship. MMSI: 366904930.

Wind from 180 at 6 knots

Barometer 1016.4 mb
Air temperature 20.7 ° C
Water temperature 9.8 ° C

Date/timePositionNaut miles runAvg speedWind from/ knotsBaromVisibWave heightAir tempDewpointWater temp
2015-May-26 04:00N 42°42' W 082°30'7 7.4 180 / 61016.4 20.7 9.8
2015-May-26 03:00N 42°36' W 082°36'7 7.5 200 / 101015.7 21.1 10.3
2015-May-26 02:00N 42°30' W 082°42'2110.7 210 / 131014.8 17.1 11.3
2015-May-26 00:00N 42°18' W 083°06'1212.0 220 / 201014.2 26.3 13.2
2015-May-25 23:00N 42°06' W 083°06'1212.0 180 / 151014.2 23.0 13.5
2015-May-25 22:00N 41°54' W 083°06'1110.8 200 / 221014.4 21.0 14.2
2015-May-25 21:00N 41°48' W 083°18'7 7.5 220 / 261014.7 24.3 15.6
2015-May-25 20:00N 41°42' W 083°24'0 0.0 200 / 261015.1 25.8 17.4
2015-May-25 19:00N 41°42' W 083°24'0 0.0 210 / 211015.1 25.9 17.2
2015-May-25 18:00N 41°42' W 083°24'0 0.0 220 / 221015.4 25.7 17.0
2015-May-25 17:00N 41°42' W 083°24'0 0.0 200 / 231015.4 26.1 16.8
2015-May-25 16:00N 41°42' W 083°24'0 0.0 200 / 171015.7 26.2 16.6
2015-May-25 15:00N 41°42' W 083°24'0 0.0 200 / 231015.7 24.9 18.2
2015-May-25 14:00N 41°42' W 083°24'0 0.0 220 / 231016.1 23.6 16.0
2015-May-25 13:00N 41°42' W 083°24'1110.8 200 / 201016.8 22.4 15.3
2015-May-25 12:00N 41°48' W 083°12'7 7.5 180 / 181016.8 19.9 14.0
2015-May-25 11:00N 41°54' W 083°06'0 0.0 180 / 181016.8 18.7 13.3
2015-May-25 10:00N 41°54' W 083°06'0 0.0 160 / 131016.8 18.2 12.8
2015-May-25 09:00N 41°54' W 083°06'0 0.0 160 / 131016.8 18.4 12.8
2015-May-25 08:00N 41°54' W 083°06'0 0.0 160 / 131017.1 18.3 13.0
2015-May-25 07:00N 41°54' W 083°06'0 0.0 160 / 161017.4 18.4 13.6
2015-May-25 06:00N 41°54' W 083°06'0 0.0 160 / 171017.8 19.0 13.6
2015-May-25 05:00N 41°54' W 083°06'0 0.0 160 / 181018.1 19.0 13.6
2015-May-25 04:00N 41°54' W 083°06'0 0.0 140 / 161018.5 19.5 13.4
2015-May-25 02:00N 41°54' W 083°06'0 0.0 100 / 131019.1 17.6 13.4
2015-May-25 01:00N 41°54' W 083°06'1212.0 080 / 191018.8 16.6 13.2
2015-May-25 00:00N 42°06' W 083°06'6 6.0 090 / 121019.5 22.0 12.2
2015-May-24 23:00N 42°12' W 083°06'7 7.5 110 / 71020.3 23.8 12.1
2015-May-24 22:00N 42°18' W 083°00'1110.7 100 / 21021.3 24.3 12.0
2015-May-24 21:00N 42°24' W 082°48'1110.7 190 / 61021.6 23.3 10.9
2015-May-24 20:00N 42°30' W 082°36'1312.8 200 / 51021.9 23.4 9.5
2015-May-24 19:00N 42°42' W 082°30'6 6.0 190 / 111022.5 24.0 9.5
2015-May-24 18:00N 42°48' W 082°30'1312.8 190 / 121022.8 24.4 9.2
2015-May-24 17:00N 43°00' W 082°24'1212.0 240 / 91023.5 25.5 9.0
2015-May-24 16:00N 43°12' W 082°24'1212.0 170 / 71023.2 22.2 7.3
2015-May-24 15:00N 43°24' W 082°24'1312.8 150 / 131022.8 15.6 6.6
2015-May-24 14:00N 43°36' W 082°30'1212.0 120 / 161023.2 8.5 6.1
2015-May-24 13:00N 43°48' W 082°30'9513.5 150 / 111023.2 10.1 3.7
2015-May-24 06:00N 45°18' W 083°12'7 7.3 030 / 81022.1 10.6 2.7
2015-May-24 05:00N 45°24' W 083°18'1514.7 350 / 121022.1 7.5 2.8
2015-May-24 04:00N 45°36' W 083°30'1516.3 320 / 51021.8 8.6 2.6
2015-May-24 03:05N 45°48' W 083°43'713.4
2015-May-24 02:33N 45°53' W 083°50'813.4
2015-May-24 02:00N 46°00' W 083°54'15 9.8 280 / 41021.5 16.1 5.5
2015-May-24 00:24N 46°12' W 084°08'3 6.7
2015-May-24 00:00N 46°12' W 084°12'810.2 240 / 181020.4 18.1 5.8
2015-May-23 23:14N 46°20' W 084°13'2 7.0
2015-May-23 23:00N 46°18' W 084°12'1312.7 240 / 191020.1 20.4 4.9
2015-May-23 22:00N 46°30' W 084°18'0 0.0 200 / 91020.4 22.0 4.3
2015-May-23 21:00N 46°30' W 084°18'4 4.1 250 / 101021.5 22.0 4.5
2015-May-23 20:00N 46°30' W 084°24'0 0.0 230 / 221021.0 21.2 3.8
2015-May-23 19:00N 46°30' W 084°24'510.5 230 / 181021.7 18.7 3.5
2015-May-23 18:29N 46°27' W 084°31'1510.0
2015-May-23 17:00N 46°36' W 084°48'1514.6 210 / 151021.0 11.7 1.7
2015-May-23 16:00N 46°48' W 085°00'1212.3 240 / 151021.0 13.7 2.0
2015-May-23 15:00N 46°48' W 085°18'1212.3 200 / 181021.3 11.0 2.5
2015-May-23 14:00N 46°48' W 085°36'1212.3 200 / 171022.0 9.9 1.9
2015-May-23 13:00N 46°48' W 085°54'1212.3 210 / 121022.4 9.2 2.7
2015-May-23 12:00N 46°48' W 086°12'49 2.6 200 / 161022.010.8 0.5 6.8 2.2
2015-May-22 17:00N 46°48' W 085°00'1514.6 300 / 121024.0 1.0 2.7
2015-May-22 16:00N 46°36' W 084°48'1010.2 310 / 141023.4 1.2 1.9
2015-May-22 15:00N 46°30' W 084°36'8 8.3 300 / 191022.4 1.8 3.1
2015-May-22 14:00N 46°30' W 084°24'4 4.1 270 / 91022.4 4.0 4.4
2015-May-22 13:00N 46°30' W 084°18'7 7.3 310 / 81021.8 3.1 4.3
2015-May-22 12:00N 46°24' W 084°12'4 9.0 330 / 111021.1 1.9 4.4
2015-May-22 11:31N 46°20' W 084°11'4 7.1
2015-May-22 11:00N 46°18' W 084°06'4 8.9 300 / 91020.1 2.3 4.4
2015-May-22 10:33N 46°14' W 084°07'2 3.9
2015-May-22 10:00N 46°12' W 084°06'716.8 340 / 91018.8 2.5 5.8
2015-May-22 09:33N 46°06' W 084°01'713.1
2015-May-22 09:00N 46°00' W 083°54'3 6.2 350 / 141017.4 4.4 6.9
2015-May-22 08:33N 45°57' W 083°53'5 8.9
2015-May-22 08:00N 45°54' W 083°48'4213.9 340 / 71016.7 5.4 2.8
2015-May-22 05:00N 45°18' W 083°18'1514.7 290 / 261013.0 6.4 3.0
2015-May-22 04:00N 45°06' W 083°06'1312.7 280 / 211013.3 7.4 4.2
2015-May-22 03:00N 44°54' W 083°00'1312.7 300 / 241012.7 7.7 3.4
2015-May-22 02:00N 44°42' W 082°54'5112.7 320 / 251011.3 7.1 3.3
2015-May-21 22:00N 43°54' W 082°30'1818.0 260 / 231010.6 16.7 7.3
2015-May-21 21:00N 43°36' W 082°30'1212.0 270 / 221011.0 15.9 6.3
2015-May-21 20:00N 43°24' W 082°30'1312.8 190 / 61012.0 14.2 7.0
2015-May-21 19:00N 43°12' W 082°24'1212.0 150 / 71012.7 13.3 8.7
2015-May-21 18:00N 43°00' W 082°24'1312.8 250 / 121013.3 16.1 8.7
2015-May-21 17:00N 42°48' W 082°30'6 6.0 300 / 91014.3 14.8 8.7
2015-May-21 16:00N 42°42' W 082°30'2211.2 260 / 121015.0 13.7 8.7
2015-May-21 14:00N 42°24' W 082°48'1110.7 280 / 141016.2 12.3 10.8
2015-May-21 13:00N 42°18' W 083°00'4 4.4 290 / 71016.5 11.5 11.2
2015-May-21 12:00N 42°18' W 083°06'0 0.0 290 / 41016.5 10.7 12.4
2015-May-21 11:00N 42°18' W 083°06'0 0.0 250 / 21016.5 10.1 12.8
2015-May-21 09:00N 42°18' W 083°06'4 4.4 280 / 61017.2 10.0 19.5
2015-May-21 08:00N 42°18' W 083°12'0 0.0 250 / 61017.2 10.3 19.0
2015-May-21 07:00N 42°18' W 083°12'0 0.0 230 / 51017.9 10.5 18.6
2015-May-21 06:00N 42°18' W 083°12'0 0.0 220 / 61018.2 10.4 17.7
2015-May-21 05:00N 42°18' W 083°12'0 0.0 260 / 71018.2 10.9 16.6
2015-May-21 04:00N 42°18' W 083°12'0 0.0 230 / 51017.9 12.4 16.1
2015-May-21 03:00N 42°18' W 083°12'4 4.4 220 / 51018.2 12.6 17.4
2015-May-21 02:00N 42°18' W 083°06'0 0.0 240 / 31018.2 12.0 14.5
2015-May-21 01:00N 42°18' W 083°06'1110.7 180 / 81017.9 12.1 11.2
2015-May-21 00:00N 42°24' W 082°54'1110.7 170 / 71018.9 12.4 10.6
2015-May-20 23:00N 42°30' W 082°42'1110.7 180 / 101018.9 12.0 8.5
2015-May-20 22:00N 42°36' W 082°30'1212.0 190 / 51020.1 13.4 8.4
2015-May-20 21:00N 42°48' W 082°30'6 6.0 100 / 51020.4 13.9 8.8
2015-May-20 20:00N 42°54' W 082°30'2412.2 050 / 81021.1 11.2 8.8
2015-May-20 18:00N 43°18' W 082°24'1212.0 090 / 111021.8 4.6 6.0
2015-May-20 17:00N 43°30' W 082°24'1312.8 080 / 101022.110.8 1.0 4.1 4.7
2015-May-20 16:00N 43°42' W 082°30'1818.0 060 / 71022.8 4.2 4.3
2015-May-20 15:00N 44°00' W 082°30'2512.7 300 / 61022.8 3.6 3.2
2015-May-20 13:00N 44°24' W 082°42'1312.7 310 / 101022.5 2.8 3.1
2015-May-20 12:00N 44°36' W 082°48'3812.7 310 / 131022.5 2.5 3.1
2015-May-20 09:00N 45°12' W 083°06'917.4 310 / 141021.1 2.1 2.6
2015-May-20 08:28N 45°19' W 083°14'611.7
2015-May-20 08:00N 45°24' W 083°18'715.2 310 / 181021.1 2.0 2.6
2015-May-20 07:33N 45°29' W 083°24'814.3
2015-May-20 07:00N 45°36' W 083°30'1212.8 310 / 171021.5 2.0 2.5
2015-May-20 06:03N 45°45' W 083°41'713.4
2015-May-20 05:33N 45°51' W 083°46'611.1
2015-May-20 05:00N 45°54' W 083°54'816.1 310 / 151022.5 1.6 4.7
2015-May-20 04:28N 46°02' W 083°56'12 8.1
2015-May-20 03:00N 46°12' W 084°06'7 7.3 320 / 131022.5 2.0 5.8
2015-May-20 02:00N 46°18' W 084°12'13 6.3 300 / 101021.8 1.7 4.4
2015-May-20 00:00N 46°30' W 084°18'4 4.1 290 / 91020.1 2.7 3.8
2015-May-19 23:00N 46°30' W 084°24'4 4.1 300 / 91019.3 2.9 4.0
2015-May-19 22:00N 46°30' W 084°30'8 8.3 320 / 201019.6 1.9 3.8
2015-May-19 21:00N 46°30' W 084°42'1312.7 320 / 261020.3 1.0 2.1
2015-May-19 20:00N 46°42' W 084°48'1413.7 320 / 211021.3 0.5 1.6
2015-May-19 19:00N 46°48' W 085°06'3712.3 320 / 221021.7 0.2 1.7
2015-May-19 16:00N 46°48' W 086°00'1212.3 330 / 271020.3 -0.1 2.4
2015-May-19 15:00N 46°48' W 086°18'1413.7 340 / 291020.3 -0.2 2.0
2015-May-19 14:00N 46°42' W 086°36'1413.7 330 / 241021.0 0.3 2.5
2015-May-19 13:00N 46°36' W 086°54'2110.3 330 / 261021.0 0.5 2.3
2015-May-19 11:00N 46°36' W 087°24'0 0.0 330 / 131021.0 0.4 5.4
2015-May-19 10:00N 46°36' W 087°24'0 0.0 320 / 151020.0 0.5 5.4
2015-May-19 09:00N 46°36' W 087°24'0 0.0 310 / 141020.0 0.6 5.4
2015-May-19 08:00N 46°36' W 087°24'0 0.0 310 / 121019.3 1.2 5.4
2015-May-19 06:00N 46°36' W 087°24'0 0.0 340 / 151018.6 1.4 5.2
2015-May-19 05:00N 46°36' W 087°24'0 0.0 310 / 121018.3 1.6 5.2
2015-May-19 04:00N 46°36' W 087°24'1212.4 330 / 281016.6 1.8 3.3
2015-May-19 03:00N 46°36' W 087°06'1212.4 290 / 191014.9 3.4 2.4
2015-May-19 02:00N 46°36' W 086°48'1817.5 210 / 101014.9 3.9 2.5
2015-May-19 01:00N 46°42' W 086°24'3712.5 230 / 81014.2 4.2 2.1
2015-May-18 22:00N 46°48' W 085°30'1616.4 260 / 171011.5 5.0 1.7
2015-May-18 21:00N 46°48' W 085°06'1413.7 260 / 161010.5 5.8 2.1
2015-May-18 20:00N 46°42' W 084°48'2010.2 290 / 261009.5 6.8 1.5
2015-May-18 18:00N 46°30' W 084°24'4 2.1 210 / 241008.5 19.9 3.0
2015-May-18 16:00N 46°30' W 084°18'15 7.3 200 / 211009.6 20.9 3.4
2015-May-18 14:00N 46°18' W 084°06'6 8.7 220 / 181010.3 20.1 4.3
2015-May-18 13:21N 46°12' W 084°07'1 2.6
2015-May-18 13:00N 46°12' W 084°06'0 0.0 210 / 71010.3 17.8 6.1
2015-May-18 12:00N 46°12' W 084°06'3 7.2 120 / 51010.3 15.7 6.1
2015-May-18 11:33N 46°09' W 084°03'3 5.7
2015-May-18 11:00N 46°12' W 084°06'3 7.2 120 / 61010.3 15.3 6.0
2015-May-18 10:33N 46°09' W 084°03'0 0.0
2015-May-18 09:32N 46°09' W 084°03'3 2.7
2015-May-18 08:30N 46°07' W 084°01'1 2.7
2015-May-18 08:00N 46°06' W 084°00'916.7 190 / 111009.6 14.2 7.1
2015-May-18 07:26N 45°58' W 083°54'4 8.8
2015-May-18 07:00N 45°54' W 083°54'1514.6 160 / 171009.9 12.0 3.1
2015-May-18 06:00N 45°42' W 083°42'1514.6 150 / 171010.6 13.9 2.4
2015-May-18 05:00N 45°30' W 083°30'1514.7 150 / 151011.3 11.4 2.4
2015-May-18 04:00N 45°18' W 083°18'2713.6 150 / 181011.6 11.4 2.7
2015-May-18 02:00N 44°54' W 083°00'5714.2 150 / 221013.7 9.8 3.1
2015-May-17 22:00N 44°00' W 082°36'1312.8 140 / 161015.7 10.3 7.6
2015-May-17 21:00N 43°48' W 082°30'3015.0 130 / 161016.4 11.7 6.8
2015-May-17 19:00N 43°18' W 082°30'1312.8 130 / 101018.1 14.5 7.1
2015-May-17 18:00N 43°06' W 082°24'1212.0 150 / 51018.4 19.5 8.3
2015-May-17 17:00N 42°54' W 082°24'7 7.4 210 / 121019.1 23.0 7.8
2015-May-17 16:00N 42°48' W 082°30'1212.0 160 / 111019.1 22.5 7.9
2015-May-17 15:00N 42°36' W 082°30'1110.7 180 / 61020.1 18.1 8.1
2015-May-17 14:00N 42°30' W 082°42'1110.7 120 / 91020.3 15.7 8.5
2015-May-17 13:00N 42°24' W 082°54'1110.7 100 / 51019.9 16.7 10.7
2015-May-17 12:00N 42°18' W 083°06'4 2.2 020 / 21019.9 17.8 12.1
2015-May-17 10:00N 42°18' W 083°12'0 0.0 150 / 51019.6 19.0 18.5
2015-May-17 09:00N 42°18' W 083°12'0 0.0 180 / 61018.9 19.3 18.4
2015-May-17 08:00N 42°18' W 083°12'0 0.0 190 / 51018.6 19.6 18.1
2015-May-17 07:00N 42°18' W 083°12'0 0.0 170 / 41018.6 19.7 18.4
2015-May-17 06:00N 42°18' W 083°12'0 0.0 110 / 31019.2 19.4 18.1
2015-May-17 05:00N 42°18' W 083°12'0 0.0 150 / 41019.2 19.3 16.8
2015-May-17 04:00N 42°18' W 083°12'0 0.0 140 / 71019.2 19.7 15.8
2015-May-17 03:00N 42°18' W 083°12'4 4.4 150 / 41019.2 20.1 17.0
2015-May-17 02:00N 42°18' W 083°06'0 0.0 140 / 41019.2 20.2 13.0
2015-May-17 01:00N 42°18' W 083°06'4 4.4 130 / 51018.6 20.9 12.0
2015-May-17 00:00N 42°18' W 083°00'0 0.0 160 / 71018.6 21.8 11.5
2015-May-16 23:00N 42°18' W 083°00'0 0.0 170 / 61018.6 22.4 11.4
2015-May-16 22:00N 42°18' W 083°00'0 0.0 040 / 91018.6 17.2 11.4
2015-May-16 21:00N 42°18' W 083°00'0 0.0 050 / 101017.9 18.4 11.4
2015-May-16 20:00N 42°18' W 083°00'0 0.0 210 / 71018.2 22.8 11.4
2015-May-16 19:00N 42°18' W 083°00'0 0.0 040 / 51018.9 20.0 11.2
2015-May-16 18:00N 42°18' W 083°00'7 3.7 090 / 101018.6 18.2 11.2
2015-May-16 16:00N 42°24' W 082°54'   090 / 61019.6 15.4 10.5

Dump ship's entire track history